createdAt,value
2019-03-23T00:00:10.727Z,5.53
2019-03-23T00:02:39.838Z,5.90
2019-03-23T00:05:09.131Z,5.73
2019-03-23T00:07:38.298Z,5.97
2019-03-23T00:10:08.410Z,5.30
2019-03-23T00:12:37.547Z,5.60
2019-03-23T00:15:09.242Z,5.37
2019-03-23T00:17:38.214Z,6.60
2019-03-23T00:20:08.023Z,5.73
2019-03-23T00:22:37.169Z,5.90
2019-03-23T00:25:06.993Z,5.77
2019-03-23T00:27:36.079Z,5.70
2019-03-23T00:30:07.823Z,6.10
2019-03-23T00:32:37.002Z,5.93
2019-03-23T00:35:07.763Z,5.63
2019-03-23T00:37:36.886Z,6.47
2019-03-23T00:40:08.157Z,5.93
2019-03-23T00:42:37.205Z,6.33
2019-03-23T00:45:07.410Z,7.03
2019-03-23T00:47:36.403Z,6.30
2019-03-23T00:50:06.823Z,7.00
2019-03-23T00:52:35.793Z,6.30
2019-03-23T00:55:07.726Z,6.33
2019-03-23T00:57:36.743Z,6.60
2019-03-23T01:00:10.750Z,6.80
2019-03-23T01:02:41.927Z,6.70
2019-03-23T01:05:11.197Z,6.83
2019-03-23T01:07:40.355Z,7.47
2019-03-23T01:10:13.718Z,6.47
2019-03-23T01:12:42.722Z,7.00
2019-03-23T01:15:13.323Z,6.50
2019-03-23T01:17:43.853Z,7.03
2019-03-23T01:20:13.960Z,6.50
2019-03-23T01:22:42.990Z,6.87
2019-03-23T01:25:12.787Z,6.13
2019-03-23T01:27:41.864Z,5.87
2019-03-23T01:30:14.721Z,6.80
2019-03-23T01:32:43.739Z,6.47
2019-03-23T01:35:12.835Z,6.50
2019-03-23T01:37:41.867Z,6.97
2019-03-23T01:40:10.962Z,6.53
2019-03-23T01:42:40.119Z,7.43
2019-03-23T01:45:13.725Z,6.57
2019-03-23T01:47:42.898Z,7.07
2019-03-23T01:50:12.604Z,6.30
2019-03-23T01:52:42.434Z,6.20
2019-03-23T01:55:11.542Z,6.03
2019-03-23T01:57:40.530Z,5.80
2019-03-23T02:00:12.015Z,6.43
2019-03-23T02:02:41.030Z,7.37
2019-03-23T02:05:10.418Z,6.27
2019-03-23T02:07:39.447Z,6.40
2019-03-23T02:10:10.862Z,6.00
2019-03-23T02:12:39.914Z,5.87
2019-03-23T02:15:10.911Z,6.20
2019-03-23T02:17:39.938Z,5.77
2019-03-23T02:20:11.334Z,5.93
2019-03-23T02:22:40.360Z,5.90
2019-03-23T02:25:10.189Z,5.87
2019-03-23T02:27:39.174Z,6.17
2019-03-23T02:30:13.855Z,6.10
2019-03-23T02:32:42.807Z,6.57
2019-03-23T02:35:11.943Z,6.60
2019-03-23T02:37:40.988Z,6.33
2019-03-23T02:40:10.799Z,7.33
2019-03-23T02:42:39.763Z,6.60
2019-03-23T02:45:10.664Z,6.13
2019-03-23T02:47:39.782Z,5.77
2019-03-23T02:50:10.097Z,6.20
2019-03-23T02:52:39.119Z,6.03
2019-03-23T02:55:09.535Z,6.40
2019-03-23T02:57:38.667Z,5.30
2019-03-23T03:00:15.133Z,6.40
2019-03-23T03:02:44.163Z,5.77
2019-03-23T03:05:13.507Z,6.33
2019-03-23T03:07:43.761Z,6.30
2019-03-23T03:10:16.404Z,6.20
2019-03-23T03:12:45.471Z,6.03
2019-03-23T03:15:14.470Z,6.97
2019-03-23T03:17:43.428Z,5.80
2019-03-23T03:20:12.573Z,6.20
2019-03-23T03:22:41.643Z,6.00
2019-03-23T03:25:10.678Z,6.57
2019-03-23T03:27:39.646Z,7.20
2019-03-23T03:30:10.833Z,6.20
2019-03-23T03:32:39.880Z,7.47
2019-03-23T03:35:09.191Z,6.33
2019-03-23T03:37:38.211Z,6.90
2019-03-23T03:40:08.820Z,6.57
2019-03-23T03:42:37.871Z,5.90
2019-03-23T03:45:08.214Z,6.43
2019-03-23T03:47:40.799Z,6.43
2019-03-23T03:50:08.697Z,6.47
2019-03-23T03:52:37.650Z,6.77
2019-03-23T03:55:07.683Z,7.03
2019-03-23T03:57:36.703Z,6.60
2019-03-23T04:00:09.926Z,6.70
2019-03-23T04:02:39.274Z,7.03
2019-03-23T04:05:08.459Z,7.57
2019-03-23T04:07:37.474Z,6.43
2019-03-23T04:10:10.805Z,6.67
2019-03-23T04:12:39.845Z,6.33
2019-03-23T04:15:10.233Z,6.73
2019-03-23T04:17:39.235Z,6.77
2019-03-23T04:20:09.487Z,7.30
2019-03-23T04:22:38.502Z,6.37
2019-03-23T04:25:09.736Z,7.57
2019-03-23T04:27:38.765Z,6.53
2019-03-23T04:30:10.184Z,6.33
2019-03-23T04:32:39.137Z,6.80
2019-03-23T04:35:08.554Z,6.47
2019-03-23T04:37:37.649Z,6.77
2019-03-23T04:40:09.860Z,6.97
2019-03-23T04:42:38.938Z,6.83
2019-03-23T04:45:10.242Z,6.23
2019-03-23T04:47:39.220Z,6.30
2019-03-23T04:50:10.752Z,6.30
2019-03-23T04:52:39.795Z,6.03
2019-03-23T04:55:11.149Z,6.80
2019-03-23T04:57:40.939Z,6.37
2019-03-23T05:00:18.838Z,6.37
2019-03-23T05:02:47.792Z,6.40
2019-03-23T05:05:16.844Z,7.03
2019-03-23T05:07:45.825Z,6.73
2019-03-23T05:10:15.246Z,6.40
2019-03-23T05:12:44.218Z,7.27
2019-03-23T05:15:13.329Z,7.73
2019-03-23T05:17:42.420Z,6.90
2019-03-23T05:20:14.594Z,7.03
2019-03-23T05:22:43.728Z,6.97
2019-03-23T05:25:29.423Z,6.40
2019-03-23T05:27:58.989Z,7.23
2019-03-23T05:30:28.172Z,6.90
2019-03-23T05:32:57.207Z,6.90
2019-03-23T05:35:27.173Z,6.97
2019-03-23T05:37:56.174Z,6.60
2019-03-23T05:40:25.170Z,7.30
2019-03-23T05:42:54.121Z,6.73
2019-03-23T05:45:23.110Z,8.23
2019-03-23T05:47:52.135Z,7.57
2019-03-23T05:50:21.367Z,7.00
2019-03-23T05:52:50.335Z,6.53
2019-03-23T05:55:19.373Z,8.87
2019-03-23T05:57:48.327Z,7.10
2019-03-23T06:00:18.855Z,8.47
2019-03-23T06:02:47.806Z,7.10
2019-03-23T06:05:16.902Z,7.30
2019-03-23T06:07:45.858Z,6.80
2019-03-23T06:10:14.827Z,7.23
2019-03-23T06:12:43.786Z,7.07
2019-03-23T06:15:12.898Z,7.57
2019-03-23T06:17:41.861Z,6.87
2019-03-23T06:20:11.073Z,7.40
2019-03-23T06:22:40.200Z,7.47
2019-03-23T06:25:09.233Z,6.90
2019-03-23T06:27:38.214Z,7.33
2019-03-23T06:30:09.930Z,7.53
2019-03-23T06:32:38.958Z,7.47
2019-03-23T06:35:08.777Z,7.67
2019-03-23T06:37:37.855Z,7.10
2019-03-23T06:40:08.766Z,7.67
2019-03-23T06:42:37.824Z,7.70
2019-03-23T06:45:11.167Z,7.83
2019-03-23T06:47:40.143Z,9.77
2019-03-23T06:50:12.952Z,8.77
2019-03-23T06:52:41.998Z,8.50
2019-03-23T06:55:11.521Z,9.27
2019-03-23T06:57:40.491Z,10.00
2019-03-23T07:00:14.827Z,9.67
2019-03-23T07:02:43.857Z,9.00
2019-03-23T07:05:13.683Z,9.40
2019-03-23T07:07:42.725Z,9.73
2019-03-23T07:10:13.498Z,10.23
2019-03-23T07:12:42.568Z,9.83
2019-03-23T07:15:19.941Z,10.47
2019-03-23T07:17:43.190Z,10.30
2019-03-23T07:20:14.014Z,11.53
2019-03-23T07:22:43.003Z,11.80
2019-03-23T07:25:12.579Z,14.40
2019-03-23T07:27:41.762Z,14.17
2019-03-23T07:30:17.527Z,13.07
2019-03-23T07:32:46.570Z,11.53
2019-03-23T07:35:15.903Z,11.67
2019-03-23T07:37:44.903Z,11.77
2019-03-23T07:40:14.335Z,13.23
2019-03-23T07:42:43.370Z,11.90
2019-03-23T07:45:16.038Z,12.63
2019-03-23T07:47:45.036Z,12.10
2019-03-23T07:50:15.613Z,12.33
2019-03-23T07:52:45.305Z,12.70
2019-03-23T07:55:17.394Z,11.47
2019-03-23T07:57:46.500Z,11.77
2019-03-23T08:00:20.238Z,12.83
2019-03-23T08:02:49.194Z,13.97
2019-03-23T08:05:18.327Z,14.73
2019-03-23T08:07:47.471Z,15.07
2019-03-23T08:10:30.910Z,15.37
2019-03-23T08:13:00.475Z,16.53
2019-03-23T08:15:29.913Z,14.67
2019-03-23T08:17:58.894Z,15.90
2019-03-23T08:20:27.941Z,15.60
2019-03-23T08:22:56.918Z,16.63
2019-03-23T08:25:25.917Z,16.33
2019-03-23T08:27:54.878Z,16.00
2019-03-23T08:30:23.875Z,17.13
2019-03-23T08:32:52.846Z,21.17
2019-03-23T08:35:22.034Z,21.77
2019-03-23T08:37:51.018Z,24.67
2019-03-23T08:40:20.043Z,22.03
2019-03-23T08:42:49.015Z,23.30
2019-03-23T08:45:18.079Z,21.70
2019-03-23T08:47:47.080Z,21.83
2019-03-23T08:50:16.135Z,22.80
2019-03-23T08:52:45.125Z,23.90
2019-03-23T08:55:14.098Z,20.23
2019-03-23T08:57:43.184Z,20.83
2019-03-23T09:00:12.617Z,22.03
2019-03-23T09:02:41.579Z,21.93
2019-03-23T09:05:10.708Z,20.93
2019-03-23T09:07:39.754Z,20.43
2019-03-23T09:10:09.594Z,18.87
2019-03-23T09:12:38.583Z,21.93
2019-03-23T09:15:09.589Z,21.27
2019-03-23T09:17:38.567Z,21.30
2019-03-23T09:20:10.278Z,22.47
2019-03-23T09:22:39.359Z,21.93
2019-03-23T09:25:08.554Z,23.03
2019-03-23T09:27:37.543Z,21.77
2019-03-23T09:30:09.534Z,22.10
2019-03-23T09:32:38.532Z,21.37
2019-03-23T09:35:07.582Z,22.97
2019-03-23T09:37:38.209Z,23.03
2019-03-23T09:40:11.017Z,22.00
2019-03-23T09:42:39.876Z,23.20
2019-03-23T09:45:09.596Z,22.73
2019-03-23T09:47:38.998Z,24.17
2019-03-23T09:50:10.028Z,24.90
2019-03-23T09:52:39.114Z,24.67
2019-03-23T09:55:08.545Z,24.80
2019-03-23T09:57:37.556Z,23.47
2019-03-23T10:00:09.344Z,24.33
2019-03-23T10:02:38.411Z,29.80
2019-03-23T10:05:08.432Z,23.17
2019-03-23T10:07:37.835Z,24.57
2019-03-23T10:10:07.821Z,25.80
2019-03-23T10:12:36.836Z,25.30
2019-03-23T10:15:08.370Z,26.10
2019-03-23T10:17:37.348Z,27.70
2019-03-23T10:20:07.041Z,25.40
2019-03-23T10:22:36.294Z,25.17
2019-03-23T10:25:06.431Z,23.37
2019-03-23T10:27:35.462Z,25.03
2019-03-23T10:30:06.843Z,27.77
2019-03-23T10:32:35.895Z,26.23
2019-03-23T10:35:07.116Z,26.23
2019-03-23T10:37:36.110Z,26.83
2019-03-23T10:40:09.862Z,25.07
2019-03-23T10:42:39.119Z,25.83
2019-03-23T10:45:09.669Z,26.87
2019-03-23T10:47:38.785Z,25.60
2019-03-23T10:50:08.134Z,26.50
2019-03-23T10:52:37.158Z,25.73
2019-03-23T10:55:07.279Z,24.17
2019-03-23T10:57:36.274Z,24.47
2019-03-23T11:00:11.238Z,25.47
2019-03-23T11:02:40.339Z,25.43
2019-03-23T11:05:10.154Z,25.40
2019-03-23T11:07:39.213Z,27.60
2019-03-23T11:10:10.598Z,29.27
2019-03-23T11:12:39.607Z,27.40
2019-03-23T11:15:09.422Z,26.63
2019-03-23T11:17:38.587Z,28.10
2019-03-23T11:20:10.405Z,28.00
2019-03-23T11:22:39.673Z,28.27
2019-03-23T11:25:09.881Z,29.10
2019-03-23T11:27:38.870Z,31.00
2019-03-23T11:30:10.959Z,29.33
2019-03-23T11:32:39.942Z,31.77
2019-03-23T11:35:09.249Z,28.60
2019-03-23T11:37:38.634Z,31.03
2019-03-23T11:40:10.170Z,29.23
2019-03-23T11:42:49.300Z,29.03
2019-03-23T11:45:11.691Z,28.90
2019-03-23T11:47:40.790Z,31.70
2019-03-23T11:50:10.717Z,32.53
2019-03-23T11:52:39.796Z,30.97
2019-03-23T11:55:09.522Z,29.90
2019-03-23T11:57:38.573Z,30.33
2019-03-23T12:00:17.048Z,30.63
2019-03-23T12:02:46.051Z,31.80
2019-03-23T12:05:15.095Z,35.80
2019-03-23T12:07:44.166Z,34.13
2019-03-23T12:10:14.488Z,34.97
2019-03-23T12:12:43.477Z,32.60
2019-03-23T12:15:13.286Z,30.80
2019-03-23T12:17:47.513Z,34.17
2019-03-23T12:20:16.666Z,32.57
2019-03-23T12:22:45.665Z,33.97
2019-03-23T12:25:14.979Z,34.33
2019-03-23T12:27:44.044Z,33.57
2019-03-23T12:30:17.513Z,34.20
2019-03-23T12:32:46.489Z,33.10
2019-03-23T12:35:15.452Z,33.17
2019-03-23T12:37:44.481Z,33.57
2019-03-23T12:40:14.071Z,35.20
2019-03-23T12:42:43.065Z,34.37
2019-03-23T12:45:12.662Z,32.77
2019-03-23T12:47:41.721Z,33.43
2019-03-23T12:50:12.049Z,33.43
2019-03-23T12:52:41.194Z,33.53
2019-03-23T12:55:10.305Z,34.50
2019-03-23T12:57:39.396Z,34.00
2019-03-23T13:00:13.867Z,34.13
2019-03-23T13:02:42.866Z,30.73
2019-03-23T13:05:12.101Z,33.83
2019-03-23T13:07:41.077Z,32.33
2019-03-23T13:10:14.858Z,32.10
2019-03-23T13:12:44.118Z,34.07
2019-03-23T13:15:14.542Z,30.97
2019-03-23T13:17:43.611Z,31.30
2019-03-23T13:20:13.711Z,32.90
2019-03-23T13:22:42.844Z,33.30
2019-03-23T13:25:12.226Z,32.13
2019-03-23T13:27:42.199Z,32.93
2019-03-23T13:30:14.158Z,30.93
2019-03-23T13:32:43.274Z,32.33
2019-03-23T13:35:12.420Z,31.50
2019-03-23T13:37:41.469Z,32.53
2019-03-23T13:40:11.896Z,34.10
2019-03-23T13:42:41.158Z,33.53
2019-03-23T13:45:11.074Z,34.20
2019-03-23T13:47:40.819Z,32.87
2019-03-23T13:50:11.674Z,32.23
2019-03-23T13:52:40.762Z,35.87
2019-03-23T13:55:27.306Z,35.57
2019-03-23T13:57:58.071Z,35.27
2019-03-23T14:00:27.108Z,31.17
2019-03-23T14:02:56.165Z,32.90
2019-03-23T14:05:25.273Z,33.00
2019-03-23T14:07:54.275Z,35.67
2019-03-23T14:10:23.238Z,34.00
2019-03-23T14:12:52.271Z,34.73
2019-03-23T14:15:21.272Z,34.50
2019-03-23T14:17:50.318Z,34.63
2019-03-23T14:20:19.366Z,35.13
2019-03-23T14:22:48.369Z,37.10
2019-03-23T14:25:17.450Z,33.43
2019-03-23T14:27:46.442Z,34.70
2019-03-23T14:30:16.041Z,37.20
2019-03-23T14:32:45.143Z,36.67
2019-03-23T14:35:14.187Z,37.57
2019-03-23T14:37:43.175Z,36.10
2019-03-23T14:40:12.385Z,38.77
2019-03-23T14:42:41.517Z,37.53
2019-03-23T14:45:10.647Z,39.03
2019-03-23T14:47:39.680Z,37.20
2019-03-23T14:50:09.008Z,38.47
2019-03-23T14:52:38.046Z,36.90
2019-03-23T14:55:07.403Z,38.60
2019-03-23T14:57:36.502Z,36.83
2019-03-23T15:00:09.817Z,39.03
2019-03-23T15:02:38.794Z,37.73
2019-03-23T15:05:08.426Z,36.53
2019-03-23T15:07:37.407Z,37.53
2019-03-23T15:10:08.331Z,38.57
2019-03-23T15:12:37.435Z,34.87
2019-03-23T15:15:08.171Z,34.43
2019-03-23T15:17:37.141Z,35.50
2019-03-23T15:20:06.862Z,37.03
2019-03-23T15:22:35.915Z,35.67
2019-03-23T15:25:06.647Z,35.70
2019-03-23T15:27:35.675Z,35.53
2019-03-23T15:30:07.912Z,35.47
2019-03-23T15:32:36.942Z,36.87
2019-03-23T15:35:09.119Z,37.20
2019-03-23T15:37:38.094Z,35.60
2019-03-23T15:40:08.932Z,35.07
2019-03-23T15:42:37.999Z,36.23
2019-03-23T15:45:09.210Z,37.50
2019-03-23T15:47:38.288Z,34.87
2019-03-23T15:50:08.431Z,36.67
2019-03-23T15:52:37.398Z,35.73
2019-03-23T15:55:07.616Z,38.33
2019-03-23T15:57:36.589Z,35.70
2019-03-23T16:00:07.976Z,38.57
2019-03-23T16:02:37.039Z,37.47
2019-03-23T16:05:07.766Z,37.47
2019-03-23T16:07:36.728Z,37.63
2019-03-23T16:10:07.174Z,35.40
2019-03-23T16:12:37.778Z,35.23
2019-03-23T16:15:11.623Z,39.07
2019-03-23T16:17:40.931Z,37.03
2019-03-23T16:20:30.097Z,37.97
2019-03-23T16:22:59.144Z,38.20
2019-03-23T16:25:28.135Z,41.63
2019-03-23T16:27:57.135Z,39.83
2019-03-23T16:30:31.577Z,38.87
2019-03-23T16:33:00.539Z,44.47
2019-03-23T16:35:29.550Z,46.70
2019-03-23T16:37:58.511Z,41.50
2019-03-23T16:40:27.512Z,39.13
2019-03-23T16:42:56.677Z,40.70
2019-03-23T16:45:25.800Z,38.87
2019-03-23T16:47:55.312Z,40.07
2019-03-23T16:50:24.279Z,39.43
2019-03-23T16:52:53.250Z,39.97
2019-03-23T16:55:22.237Z,42.07
2019-03-23T16:57:51.254Z,39.93
2019-03-23T17:00:34.498Z,42.20
2019-03-23T17:03:04.361Z,39.57
2019-03-23T17:05:33.495Z,38.53
2019-03-23T17:08:02.542Z,39.53
2019-03-23T17:10:31.613Z,38.37
2019-03-23T17:13:00.578Z,36.80
2019-03-23T17:15:30.204Z,36.50
2019-03-23T17:17:59.186Z,37.30
2019-03-23T17:20:28.191Z,35.23
2019-03-23T17:22:57.183Z,36.17
2019-03-23T17:25:26.179Z,37.17
2019-03-23T17:27:55.171Z,36.47
2019-03-23T17:30:24.169Z,36.70
2019-03-23T17:32:53.150Z,34.93
2019-03-23T17:35:22.145Z,35.17
2019-03-23T17:37:51.114Z,35.77
2019-03-23T17:40:20.126Z,34.30
2019-03-23T17:42:49.292Z,37.03
2019-03-23T17:45:18.515Z,35.67
2019-03-23T17:47:47.716Z,36.73
2019-03-23T17:50:16.790Z,34.53
2019-03-23T17:52:46.100Z,35.90
2019-03-23T17:55:15.172Z,36.47
2019-03-23T17:57:44.244Z,37.80
2019-03-23T18:00:14.020Z,36.83
2019-03-23T18:02:43.052Z,38.27
2019-03-23T18:05:12.431Z,36.40
2019-03-23T18:07:41.435Z,36.90
2019-03-23T18:10:10.991Z,39.63
2019-03-23T18:12:40.038Z,36.80
2019-03-23T18:15:10.064Z,36.33
2019-03-23T18:17:39.295Z,37.27
2019-03-23T18:20:09.036Z,36.93
2019-03-23T18:22:38.074Z,38.40
2019-03-23T18:25:08.023Z,39.73
2019-03-23T18:27:37.045Z,37.03
2019-03-23T18:30:25.611Z,40.57
2019-03-23T18:32:54.592Z,38.83
2019-03-23T18:35:23.619Z,38.17
2019-03-23T18:37:52.595Z,38.07
2019-03-23T18:40:21.685Z,37.83
2019-03-23T18:42:50.688Z,38.57
2019-03-23T18:45:19.678Z,38.97
2019-03-23T18:47:48.673Z,40.10
2019-03-23T18:50:17.718Z,38.03
2019-03-23T18:52:46.694Z,40.03
2019-03-23T18:55:15.729Z,38.43
2019-03-23T18:57:44.891Z,40.17
2019-03-23T19:00:25.674Z,38.37
2019-03-23T19:02:54.780Z,38.10
2019-03-23T19:05:23.843Z,39.00
2019-03-23T19:07:52.831Z,39.90
2019-03-23T19:10:21.818Z,39.00
2019-03-23T19:12:50.914Z,39.60
2019-03-23T19:15:19.953Z,37.03
2019-03-23T19:17:49.021Z,36.97
2019-03-23T19:20:18.023Z,36.37
2019-03-23T19:22:47.008Z,34.97
2019-03-23T19:25:18.429Z,35.03
2019-03-23T19:27:49.066Z,34.77
2019-03-23T19:30:18.306Z,35.00
2019-03-23T19:32:47.272Z,33.43
2019-03-23T19:35:16.277Z,29.77
2019-03-23T19:37:45.324Z,28.67
2019-03-23T19:40:14.932Z,26.77
2019-03-23T19:42:44.051Z,28.63
2019-03-23T19:45:13.182Z,27.03
2019-03-23T19:47:42.366Z,27.47
2019-03-23T19:50:11.503Z,25.73
2019-03-23T19:52:40.498Z,26.20
2019-03-23T19:55:10.237Z,28.03
2019-03-23T19:57:39.302Z,27.23
2019-03-23T20:00:12.657Z,28.13
2019-03-23T20:02:41.810Z,25.03
2019-03-23T20:05:11.050Z,25.37
2019-03-23T20:07:40.060Z,26.10
2019-03-23T20:10:10.279Z,25.70
2019-03-23T20:12:39.357Z,25.17
2019-03-23T20:15:09.261Z,25.43
2019-03-23T20:17:38.259Z,24.47
2019-03-23T20:20:08.911Z,25.53
2019-03-23T20:22:37.975Z,25.30
2019-03-23T20:25:07.651Z,25.50
2019-03-23T20:27:36.782Z,22.47
2019-03-23T20:30:11.102Z,23.73
2019-03-23T20:32:40.452Z,21.93
2019-03-23T20:35:09.852Z,23.57
2019-03-23T20:37:38.930Z,21.90
2019-03-23T20:40:08.963Z,22.37
2019-03-23T20:42:37.952Z,20.03
2019-03-23T20:45:08.465Z,22.63
2019-03-23T20:47:41.598Z,21.57
2019-03-23T20:50:11.317Z,20.47
2019-03-23T20:52:41.433Z,21.37
2019-03-23T20:55:13.530Z,19.87
2019-03-23T20:57:42.555Z,19.47
2019-03-23T21:00:11.681Z,19.37
2019-03-23T21:02:40.667Z,19.80
2019-03-23T21:05:09.728Z,20.07
2019-03-23T21:07:38.710Z,17.83
2019-03-23T21:10:07.763Z,19.37
2019-03-23T21:12:36.831Z,19.07
2019-03-23T21:15:06.657Z,18.17
2019-03-23T21:17:35.653Z,17.33
2019-03-23T21:20:06.440Z,17.80
2019-03-23T21:22:35.469Z,18.40
2019-03-23T21:25:06.919Z,18.07
2019-03-23T21:27:35.918Z,18.00
2019-03-23T21:30:07.987Z,18.33
2019-03-23T21:32:36.976Z,17.30
2019-03-23T21:35:06.768Z,16.57
2019-03-23T21:37:36.084Z,17.37
2019-03-23T21:40:06.269Z,17.43
2019-03-23T21:42:35.270Z,17.10
2019-03-23T21:45:08.267Z,18.00
2019-03-23T21:47:37.275Z,15.10
2019-03-23T21:50:08.902Z,16.77
2019-03-23T21:52:37.959Z,16.73
2019-03-23T21:55:07.469Z,17.03
2019-03-23T21:57:36.725Z,16.03
2019-03-23T22:00:26.549Z,16.10
2019-03-23T22:02:55.607Z,17.23
2019-03-23T22:05:24.574Z,16.13
2019-03-23T22:07:53.566Z,16.37
2019-03-23T22:10:22.620Z,16.43
2019-03-23T22:12:51.668Z,16.37
2019-03-23T22:15:20.773Z,17.63
2019-03-23T22:17:49.751Z,16.73
2019-03-23T22:20:18.723Z,16.93
2019-03-23T22:22:47.935Z,16.43
2019-03-23T22:25:16.952Z,17.10
2019-03-23T22:27:45.907Z,17.70
2019-03-23T22:30:16.845Z,16.43
2019-03-23T22:32:45.841Z,17.23
2019-03-23T22:35:14.880Z,18.77
2019-03-23T22:37:43.878Z,18.93
2019-03-23T22:40:14.862Z,16.73
2019-03-23T22:42:43.862Z,17.40
2019-03-23T22:45:13.568Z,17.73
2019-03-23T22:47:42.634Z,17.47
2019-03-23T22:50:11.950Z,18.17
2019-03-23T22:52:40.949Z,17.60
2019-03-23T22:55:10.089Z,17.03
2019-03-23T22:57:39.167Z,17.43
2019-03-23T23:00:15.656Z,17.27
2019-03-23T23:02:44.715Z,17.70
2019-03-23T23:05:13.775Z,17.83
2019-03-23T23:07:42.923Z,17.63
2019-03-23T23:10:13.842Z,17.13
2019-03-23T23:12:42.915Z,16.90
2019-03-23T23:15:12.250Z,18.43
2019-03-23T23:17:41.225Z,17.40
2019-03-23T23:20:10.384Z,17.43
2019-03-23T23:22:39.351Z,18.63
2019-03-23T23:25:09.075Z,17.37
2019-03-23T23:27:38.118Z,18.10
2019-03-23T23:30:09.171Z,18.43
2019-03-23T23:32:38.221Z,18.30
2019-03-23T23:35:08.662Z,18.40
2019-03-23T23:37:37.699Z,16.47
2019-03-23T23:40:07.624Z,19.40
2019-03-23T23:42:36.608Z,18.10
2019-03-23T23:45:15.350Z,19.57
2019-03-23T23:47:38.217Z,19.63
2019-03-23T23:50:07.745Z,19.00
2019-03-23T23:52:37.255Z,17.87
2019-03-23T23:55:07.018Z,17.83
2019-03-23T23:57:35.978Z,19.10
